createdAt,value
2023-05-07T00:02:21.411Z,9.97
2023-05-07T00:04:48.288Z,10.13
2023-05-07T00:07:15.420Z,10.18
2023-05-07T00:09:42.485Z,10.01
2023-05-07T00:12:09.255Z,9.78
2023-05-07T00:14:36.044Z,9.99
2023-05-07T00:17:02.867Z,10.04
2023-05-07T00:19:29.623Z,9.98
2023-05-07T00:21:57.048Z,9.95
2023-05-07T00:24:23.811Z,9.83
2023-05-07T00:26:50.929Z,9.76
2023-05-07T00:29:17.952Z,9.87
2023-05-07T00:31:44.857Z,9.57
2023-05-07T00:34:11.648Z,9.85
2023-05-07T00:36:38.384Z,9.83
2023-05-07T00:39:05.776Z,9.86
2023-05-07T00:41:32.618Z,9.84
2023-05-07T00:43:59.755Z,9.85
2023-05-07T00:46:27.250Z,10.06
2023-05-07T00:48:54.835Z,9.96
2023-05-07T00:51:21.692Z,9.62
2023-05-07T00:53:49.061Z,9.83
2023-05-07T00:56:16.199Z,10.02
2023-05-07T00:58:43.224Z,9.95
2023-05-07T01:01:10.215Z,9.92
2023-05-07T01:03:37.079Z,9.87
2023-05-07T01:06:06.128Z,9.81
2023-05-07T01:08:36.139Z,9.85
2023-05-07T01:11:03.231Z,9.83
2023-05-07T01:13:30.711Z,9.68
2023-05-07T01:15:57.470Z,9.77
2023-05-07T01:18:24.558Z,9.65
2023-05-07T01:20:51.613Z,9.37
2023-05-07T01:23:19.673Z,9.65
2023-05-07T01:25:54.217Z,9.66
2023-05-07T01:28:21.317Z,9.61
2023-05-07T01:30:56.742Z,9.50
2023-05-07T01:33:24.447Z,9.58
2023-05-07T01:35:55.055Z,9.53
2023-05-07T01:38:24.674Z,9.44
2023-05-07T01:40:51.811Z,9.51
2023-05-07T01:43:18.752Z,9.37
2023-05-07T01:45:46.738Z,9.46
2023-05-07T01:48:15.373Z,9.61
2023-05-07T01:50:43.061Z,9.51
2023-05-07T01:53:10.028Z,9.41
2023-05-07T01:55:38.012Z,9.06
2023-05-07T01:58:05.746Z,8.92
2023-05-07T02:00:33.230Z,9.12
2023-05-07T02:03:00.276Z,9.21
2023-05-07T02:05:27.137Z,9.31
2023-05-07T02:07:53.898Z,9.27
2023-05-07T02:10:20.799Z,9.19
2023-05-07T02:12:47.684Z,9.10
2023-05-07T02:15:14.454Z,8.87
2023-05-07T02:18:00.480Z,8.73
2023-05-07T02:20:27.408Z,8.97
2023-05-07T02:22:54.178Z,8.67
2023-05-07T02:25:20.939Z,8.85
2023-05-07T02:27:47.783Z,8.99
2023-05-07T02:30:15.460Z,9.00
2023-05-07T02:32:42.330Z,8.96
2023-05-07T02:35:09.482Z,8.93
2023-05-07T02:37:36.418Z,8.65
2023-05-07T02:40:04.679Z,8.51
2023-05-07T02:42:31.678Z,8.81
2023-05-07T02:44:58.465Z,8.77
2023-05-07T02:47:28.201Z,8.88
2023-05-07T02:49:56.089Z,9.02
2023-05-07T02:52:23.362Z,9.02
2023-05-07T02:54:50.146Z,8.92
2023-05-07T02:57:17.049Z,8.65
2023-05-07T02:59:44.120Z,8.81
2023-05-07T03:02:11.340Z,8.60
2023-05-07T03:04:39.408Z,8.57
2023-05-07T03:07:06.306Z,8.77
2023-05-07T03:09:33.220Z,8.54
2023-05-07T03:12:00.058Z,8.65
2023-05-07T03:14:26.936Z,8.62
2023-05-07T03:16:54.041Z,8.64
2023-05-07T03:19:20.968Z,8.36
2023-05-07T03:21:47.736Z,8.39
2023-05-07T03:24:14.489Z,8.28
2023-05-07T03:26:41.295Z,8.55
2023-05-07T03:29:08.120Z,8.32
2023-05-07T03:31:35.080Z,8.38
2023-05-07T03:34:01.971Z,8.28
2023-05-07T03:36:28.965Z,8.42
2023-05-07T03:38:55.839Z,8.46
2023-05-07T03:41:22.682Z,8.41
2023-05-07T03:43:49.468Z,8.51
2023-05-07T03:46:16.388Z,8.48
2023-05-07T03:48:43.232Z,8.31
2023-05-07T03:51:10.127Z,8.52
2023-05-07T03:53:36.869Z,8.23
2023-05-07T03:56:03.872Z,8.63
2023-05-07T03:58:30.859Z,8.70
2023-05-07T04:00:57.680Z,8.31
2023-05-07T04:03:24.528Z,8.60
2023-05-07T04:05:51.375Z,8.70
2023-05-07T04:08:18.175Z,8.85
2023-05-07T04:10:44.975Z,8.87
2023-05-07T04:13:11.853Z,8.48
2023-05-07T04:15:38.672Z,8.93
2023-05-07T04:18:05.585Z,8.85
2023-05-07T04:20:37.468Z,8.91
2023-05-07T04:23:04.451Z,8.56
2023-05-07T04:25:31.771Z,8.99
2023-05-07T04:27:58.528Z,8.85
2023-05-07T04:30:25.546Z,9.12
2023-05-07T04:32:53.193Z,9.23
2023-05-07T04:35:20.421Z,9.30
2023-05-07T04:37:47.177Z,9.28
2023-05-07T04:40:14.235Z,9.47
2023-05-07T04:42:41.124Z,9.47
2023-05-07T04:45:08.180Z,9.55
2023-05-07T04:47:34.975Z,9.76
2023-05-07T04:50:01.802Z,9.81
2023-05-07T04:52:28.608Z,9.80
2023-05-07T04:54:55.399Z,9.84
2023-05-07T04:57:22.166Z,10.02
2023-05-07T04:59:49.128Z,10.00
2023-05-07T05:02:17.146Z,10.37
2023-05-07T05:04:45.771Z,9.98
2023-05-07T05:07:12.515Z,10.54
2023-05-07T05:09:39.388Z,10.34
2023-05-07T05:12:08.462Z,10.20
2023-05-07T05:14:35.266Z,10.91
2023-05-07T05:17:01.979Z,10.77
2023-05-07T05:19:28.725Z,11.02
2023-05-07T05:21:55.527Z,10.99
2023-05-07T05:24:22.322Z,11.19
2023-05-07T05:26:49.320Z,11.52
2023-05-07T05:29:16.069Z,11.58
2023-05-07T05:31:43.012Z,11.71
2023-05-07T05:34:09.793Z,11.95
2023-05-07T05:36:36.663Z,11.57
2023-05-07T05:39:03.466Z,11.79
2023-05-07T05:41:30.323Z,11.98
2023-05-07T05:43:57.253Z,12.39
2023-05-07T05:46:24.156Z,12.45
2023-05-07T05:48:50.926Z,12.39
2023-05-07T05:51:17.780Z,12.28
2023-05-07T05:53:44.719Z,12.31
2023-05-07T05:56:11.573Z,12.37
2023-05-07T05:58:40.953Z,12.44
2023-05-07T06:01:07.900Z,12.41
2023-05-07T06:03:34.704Z,12.39
2023-05-07T06:06:02.536Z,12.81
2023-05-07T06:08:32.124Z,13.00
2023-05-07T06:10:59.879Z,12.78
2023-05-07T06:13:26.976Z,13.23
2023-05-07T06:15:53.750Z,13.31
2023-05-07T06:18:20.594Z,13.12
2023-05-07T06:20:47.315Z,13.20
2023-05-07T06:23:17.213Z,13.50
2023-05-07T06:25:51.067Z,13.84
2023-05-07T06:28:17.903Z,13.87
2023-05-07T06:30:44.694Z,14.10
2023-05-07T06:33:11.682Z,14.73
2023-05-07T06:35:38.637Z,15.06
2023-05-07T06:38:05.456Z,15.34
2023-05-07T06:40:32.140Z,15.53
2023-05-07T06:42:58.836Z,15.88
2023-05-07T06:45:26.367Z,15.79
2023-05-07T06:47:53.206Z,16.00
2023-05-07T06:50:20.154Z,16.50
2023-05-07T06:52:46.935Z,16.39
2023-05-07T06:55:13.718Z,16.55
2023-05-07T06:57:40.574Z,17.33
2023-05-07T07:00:10.455Z,17.49
2023-05-07T07:02:37.991Z,17.27
2023-05-07T07:05:05.291Z,17.21
2023-05-07T07:07:32.192Z,17.41
2023-05-07T07:09:58.889Z,17.77
2023-05-07T07:12:27.180Z,17.71
2023-05-07T07:14:55.032Z,17.72
2023-05-07T07:17:22.043Z,17.42
2023-05-07T07:19:48.887Z,17.49
2023-05-07T07:22:15.646Z,17.27
2023-05-07T07:24:42.449Z,16.82
2023-05-07T07:27:09.343Z,17.11
2023-05-07T07:29:36.255Z,17.08
2023-05-07T07:32:03.193Z,17.19
2023-05-07T07:34:30.014Z,17.76
2023-05-07T07:36:57.368Z,17.59
2023-05-07T07:39:24.207Z,18.18
2023-05-07T07:41:51.090Z,18.27
2023-05-07T07:44:18.471Z,18.41
2023-05-07T07:46:45.291Z,18.70
2023-05-07T07:49:12.106Z,18.10
2023-05-07T07:51:38.942Z,18.16
2023-05-07T07:54:05.869Z,17.34
2023-05-07T07:56:36.636Z,17.26
2023-05-07T07:59:03.800Z,17.32
2023-05-07T08:01:34.154Z,17.27
2023-05-07T08:04:01.449Z,16.74
2023-05-07T08:06:28.302Z,16.64
2023-05-07T08:08:56.506Z,16.96
2023-05-07T08:11:23.330Z,17.15
2023-05-07T08:13:50.196Z,17.29
2023-05-07T08:16:17.042Z,17.32
2023-05-07T08:18:43.775Z,17.50
2023-05-07T08:21:10.581Z,17.59
2023-05-07T08:23:37.441Z,17.96
2023-05-07T08:26:04.204Z,18.43
2023-05-07T08:28:31.131Z,18.51
2023-05-07T08:30:57.980Z,18.61
2023-05-07T08:33:24.870Z,18.39
2023-05-07T08:35:51.837Z,18.00
2023-05-07T08:38:18.587Z,18.43
2023-05-07T08:40:45.733Z,18.15
2023-05-07T08:43:18.430Z,18.61
2023-05-07T08:45:46.873Z,18.27
2023-05-07T08:48:18.026Z,18.01
2023-05-07T08:50:44.872Z,18.04
2023-05-07T08:53:11.763Z,18.17
2023-05-07T08:55:38.645Z,18.72
2023-05-07T08:58:05.523Z,18.78
2023-05-07T09:00:35.460Z,19.70
2023-05-07T09:03:02.800Z,19.60
2023-05-07T09:05:29.695Z,19.42
2023-05-07T09:07:58.473Z,19.43
2023-05-07T09:10:25.363Z,19.30
2023-05-07T09:12:52.262Z,18.94
2023-05-07T09:15:19.899Z,19.85
2023-05-07T09:17:46.864Z,19.58
2023-05-07T09:20:13.959Z,20.31
2023-05-07T09:22:40.868Z,20.54
2023-05-07T09:25:51.496Z,20.49
2023-05-07T09:28:42.975Z,20.77
2023-05-07T09:31:39.761Z,20.77
2023-05-07T09:38:16.156Z,22.10
2023-05-07T09:44:25.260Z,21.73
2023-05-07T09:46:58.090Z,21.28
2023-05-07T10:01:03.873Z,21.61
2023-05-07T10:06:29.055Z,21.69
2023-05-07T10:13:29.754Z,21.19
2023-05-07T10:15:58.825Z,20.91
2023-05-07T10:52:25.034Z,22.25
2023-05-07T10:55:11.573Z,22.15
2023-05-07T10:57:39.017Z,22.41
2023-05-07T11:00:39.096Z,22.45
2023-05-07T11:03:08.800Z,22.30
2023-05-07T11:05:38.235Z,22.11
2023-05-07T11:08:06.591Z,22.19
2023-05-07T11:10:49.405Z,22.02
2023-05-07T11:13:17.271Z,22.10
2023-05-07T11:15:47.222Z,22.31
2023-05-07T11:18:19.696Z,21.92
2023-05-07T11:21:00.138Z,22.64
2023-05-07T11:23:36.498Z,23.04
2023-05-07T11:26:11.648Z,22.39
2023-05-07T11:28:43.436Z,22.57
2023-05-07T11:31:11.461Z,22.62
2023-05-07T11:33:39.929Z,23.21
2023-05-07T11:36:10.001Z,22.65
2023-05-07T11:38:38.624Z,22.24
2023-05-07T11:41:06.920Z,22.73
2023-05-07T11:43:34.641Z,22.75
2023-05-07T11:46:11.920Z,22.74
2023-05-07T11:48:40.654Z,22.88
2023-05-07T11:51:10.361Z,22.43
2023-05-07T11:53:44.381Z,22.48
2023-05-07T11:56:13.081Z,22.50
2023-05-07T11:58:42.946Z,22.35
2023-05-07T12:01:11.901Z,22.70
2023-05-07T12:03:47.063Z,22.68
2023-05-07T12:06:17.496Z,22.87
2023-05-07T12:08:47.897Z,22.77
2023-05-07T12:11:25.514Z,22.25
2023-05-07T12:13:53.489Z,22.44
2023-05-07T12:16:21.131Z,23.09
2023-05-07T12:18:49.326Z,23.77
2023-05-07T12:21:19.494Z,23.72
2023-05-07T12:23:47.186Z,23.52
2023-05-07T12:26:14.452Z,23.63
2023-05-07T12:28:44.841Z,23.02
2023-05-07T12:31:12.484Z,23.23
2023-05-07T12:33:41.478Z,23.29
2023-05-07T12:36:09.913Z,23.39
2023-05-07T12:38:42.497Z,22.97
2023-05-07T12:41:12.561Z,22.39
2023-05-07T12:43:39.983Z,22.47
2023-05-07T12:46:09.058Z,22.00
2023-05-07T12:48:44.785Z,22.39
2023-05-07T12:51:14.012Z,22.21
2023-05-07T12:53:45.761Z,22.12
2023-05-07T12:56:12.915Z,21.87
2023-05-07T12:58:40.290Z,21.98
2023-05-07T13:01:11.763Z,22.04
2023-05-07T13:03:40.291Z,22.01
2023-05-07T13:06:11.505Z,22.22
2023-05-07T13:08:44.520Z,22.70
2023-05-07T13:11:14.705Z,22.20
2023-05-07T13:13:42.910Z,22.24
2023-05-07T13:16:12.350Z,21.91
2023-05-07T13:18:41.426Z,21.71
2023-05-07T13:21:09.081Z,22.29
2023-05-07T13:23:36.395Z,22.28
2023-05-07T13:26:11.529Z,22.44
2023-05-07T13:28:45.818Z,21.80
2023-05-07T13:31:13.200Z,21.98
2023-05-07T13:33:40.810Z,22.41
2023-05-07T13:36:08.653Z,22.14
2023-05-07T13:38:35.909Z,21.60
2023-05-07T13:41:03.287Z,21.65
2023-05-07T13:43:30.500Z,22.28
2023-05-07T13:45:57.881Z,22.36
2023-05-07T13:48:25.100Z,22.30
2023-05-07T13:50:52.514Z,22.30
2023-05-07T13:53:20.183Z,22.37
2023-05-07T13:55:47.802Z,22.44
2023-05-07T13:58:15.344Z,22.36
2023-05-07T14:00:42.579Z,22.07
2023-05-07T14:03:09.981Z,21.67
2023-05-07T14:05:37.711Z,22.21
2023-05-07T14:08:21.760Z,22.44
2023-05-07T14:10:48.773Z,22.23
2023-05-07T14:13:17.316Z,22.51
2023-05-07T14:15:47.708Z,22.44
2023-05-07T14:18:14.900Z,22.25
2023-05-07T14:20:42.368Z,21.59
2023-05-07T14:23:09.236Z,21.42
2023-05-07T14:25:36.415Z,21.77
2023-05-07T14:28:03.287Z,22.12
2023-05-07T14:30:30.556Z,22.09
2023-05-07T14:32:57.746Z,21.94
2023-05-07T14:35:25.029Z,21.93
2023-05-07T14:37:52.077Z,22.15
2023-05-07T14:40:19.507Z,21.79
2023-05-07T14:42:46.547Z,21.99
2023-05-07T14:45:15.143Z,22.00
2023-05-07T14:47:42.696Z,21.87
2023-05-07T14:50:10.540Z,21.65
2023-05-07T14:52:37.601Z,21.54
2023-05-07T14:55:05.501Z,21.40
2023-05-07T14:57:36.396Z,21.27
2023-05-07T15:00:06.728Z,21.52
2023-05-07T15:02:34.015Z,21.05
2023-05-07T15:05:01.197Z,21.17
2023-05-07T15:07:29.999Z,20.47
2023-05-07T15:09:57.760Z,20.64
2023-05-07T15:12:24.900Z,20.35
2023-05-07T15:14:52.999Z,20.30
2023-05-07T15:17:20.176Z,20.61
2023-05-07T15:19:47.556Z,21.02
2023-05-07T15:22:14.666Z,20.97
2023-05-07T15:24:42.495Z,20.96
2023-05-07T15:27:09.689Z,20.49
2023-05-07T15:29:36.826Z,20.57
2023-05-07T15:32:04.077Z,20.60
2023-05-07T15:34:32.473Z,20.39
2023-05-07T15:36:59.869Z,20.56
2023-05-07T15:39:29.930Z,20.18
2023-05-07T15:41:57.305Z,20.44
2023-05-07T15:44:29.517Z,20.90
2023-05-07T15:46:56.404Z,20.67
2023-05-07T15:49:23.469Z,20.08
2023-05-07T15:51:52.206Z,20.12
2023-05-07T15:54:21.288Z,20.06
2023-05-07T15:56:48.666Z,20.04
2023-05-07T15:59:17.278Z,19.88
2023-05-07T16:01:45.841Z,19.40
2023-05-07T16:04:12.828Z,19.79
2023-05-07T16:06:40.129Z,19.56
2023-05-07T16:09:07.383Z,19.41
2023-05-07T16:11:34.944Z,19.49
2023-05-07T16:14:02.799Z,19.07
2023-05-07T16:16:33.199Z,18.98
2023-05-07T16:19:00.604Z,19.17
2023-05-07T16:21:29.614Z,19.28
2023-05-07T16:23:57.136Z,19.23
2023-05-07T16:26:24.028Z,18.90
2023-05-07T16:28:52.512Z,18.69
2023-05-07T16:31:21.626Z,18.87
2023-05-07T16:33:49.101Z,18.83
2023-05-07T16:36:16.367Z,18.51
2023-05-07T16:38:43.610Z,19.00
2023-05-07T16:41:11.338Z,19.10
2023-05-07T16:43:38.587Z,19.11
2023-05-07T16:46:05.715Z,18.76
2023-05-07T16:48:32.912Z,19.28
2023-05-07T16:51:00.185Z,19.20
2023-05-07T16:53:27.263Z,19.09
2023-05-07T16:55:56.715Z,18.96
2023-05-07T16:58:24.219Z,19.17
2023-05-07T17:00:51.553Z,19.21
2023-05-07T17:03:19.903Z,19.01
2023-05-07T17:05:47.219Z,18.84
2023-05-07T17:08:14.688Z,18.30
2023-05-07T17:10:43.827Z,18.30
2023-05-07T17:13:11.611Z,18.21
2023-05-07T17:15:39.204Z,18.25
2023-05-07T17:18:06.616Z,17.73
2023-05-07T17:20:34.684Z,17.65
2023-05-07T17:23:02.250Z,17.38
2023-05-07T17:25:29.264Z,17.39
2023-05-07T17:27:56.169Z,16.98
2023-05-07T17:30:23.368Z,16.73
2023-05-07T17:32:50.603Z,16.60
2023-05-07T17:35:18.115Z,16.36
2023-05-07T17:37:52.880Z,16.31
2023-05-07T17:40:22.859Z,16.20
2023-05-07T17:42:52.365Z,15.99
2023-05-07T17:45:21.124Z,15.93
2023-05-07T17:47:48.461Z,15.80
2023-05-07T17:50:15.455Z,15.61
2023-05-07T17:52:43.343Z,15.50
2023-05-07T17:55:10.724Z,15.36
2023-05-07T17:57:38.813Z,15.46
2023-05-07T18:00:10.579Z,15.11
2023-05-07T18:02:38.737Z,15.09
2023-05-07T18:05:06.622Z,14.99
2023-05-07T18:07:34.105Z,14.84
2023-05-07T18:10:01.413Z,14.60
2023-05-07T18:12:28.698Z,14.26
2023-05-07T18:14:55.834Z,14.13
2023-05-07T18:17:24.706Z,14.34
2023-05-07T18:19:54.702Z,13.97
2023-05-07T18:22:22.791Z,14.08
2023-05-07T18:24:50.925Z,14.02
2023-05-07T18:27:28.980Z,14.04
2023-05-07T18:29:56.258Z,13.83
2023-05-07T18:32:23.209Z,13.75
2023-05-07T18:34:50.663Z,13.64
2023-05-07T18:37:18.557Z,13.60
2023-05-07T18:39:47.143Z,13.16
2023-05-07T18:42:14.756Z,13.15
2023-05-07T18:44:42.040Z,13.36
2023-05-07T18:47:10.202Z,12.93
2023-05-07T18:49:37.549Z,13.10
2023-05-07T18:52:11.475Z,12.85
2023-05-07T18:54:38.790Z,13.05
2023-05-07T18:57:09.893Z,12.90
2023-05-07T18:59:37.921Z,12.73
2023-05-07T19:02:05.482Z,12.65
2023-05-07T19:04:33.187Z,12.66
2023-05-07T19:07:00.277Z,12.50
2023-05-07T19:09:30.954Z,12.41
2023-05-07T19:11:59.232Z,12.42
2023-05-07T19:14:28.180Z,12.21
2023-05-07T19:16:55.561Z,12.25
2023-05-07T19:19:22.819Z,12.13
2023-05-07T19:21:50.379Z,12.02
2023-05-07T19:24:17.709Z,12.16
2023-05-07T19:26:45.679Z,11.99
2023-05-07T19:29:18.025Z,11.98
2023-05-07T19:31:46.335Z,11.87
2023-05-07T19:34:16.654Z,11.76
2023-05-07T19:36:44.236Z,11.78
2023-05-07T19:39:12.930Z,11.63
2023-05-07T19:41:42.411Z,11.64
2023-05-07T19:44:09.643Z,11.53
2023-05-07T19:46:37.454Z,11.42
2023-05-07T19:49:04.875Z,11.25
2023-05-07T19:51:33.739Z,11.26
2023-05-07T19:54:02.634Z,11.19
2023-05-07T19:56:29.813Z,11.10
2023-05-07T19:58:56.927Z,11.07
2023-05-07T20:01:24.472Z,11.01
2023-05-07T20:03:51.824Z,10.96
2023-05-07T20:06:19.974Z,10.67
2023-05-07T20:08:49.903Z,10.48
2023-05-07T20:11:16.893Z,10.76
2023-05-07T20:13:44.669Z,10.63
2023-05-07T20:16:12.260Z,10.24
2023-05-07T20:18:40.033Z,10.58
2023-05-07T20:21:07.444Z,10.08
2023-05-07T20:23:34.552Z,10.32
2023-05-07T20:26:01.479Z,9.96
2023-05-07T20:28:29.290Z,9.64
2023-05-07T20:30:56.681Z,9.78
2023-05-07T20:33:27.384Z,9.59
2023-05-07T20:35:58.620Z,9.46
2023-05-07T20:38:27.662Z,9.64
2023-05-07T20:40:54.842Z,9.56
2023-05-07T20:43:21.700Z,9.47
2023-05-07T20:45:48.424Z,9.47
2023-05-07T20:48:15.179Z,9.39
2023-05-07T20:50:41.965Z,9.36
2023-05-07T20:53:08.695Z,9.17
2023-05-07T20:55:35.409Z,8.99
2023-05-07T20:58:02.234Z,8.96
2023-05-07T21:00:28.995Z,9.05
2023-05-07T21:02:55.780Z,8.94
2023-05-07T21:05:22.533Z,8.99
2023-05-07T21:07:49.293Z,8.77
2023-05-07T21:10:16.230Z,8.79
2023-05-07T21:12:42.912Z,8.71
2023-05-07T21:15:10.680Z,8.63
2023-05-07T21:17:37.563Z,8.59
2023-05-07T21:20:04.670Z,8.39
2023-05-07T21:22:31.596Z,8.39
2023-05-07T21:24:58.238Z,8.37
2023-05-07T21:27:24.969Z,8.32
2023-05-07T21:29:51.711Z,8.14
2023-05-07T21:32:18.359Z,8.17
2023-05-07T21:34:46.391Z,8.04
2023-05-07T21:37:14.175Z,8.16
2023-05-07T21:39:40.890Z,8.15
2023-05-07T21:42:08.733Z,8.06
2023-05-07T21:44:35.403Z,7.98
2023-05-07T21:47:02.072Z,8.02
2023-05-07T21:49:28.957Z,7.95
2023-05-07T21:51:56.290Z,7.96
2023-05-07T21:54:23.085Z,7.98
2023-05-07T21:56:50.241Z,7.90
2023-05-07T21:59:17.116Z,7.96
2023-05-07T22:01:43.941Z,7.80
2023-05-07T22:04:11.252Z,7.99
2023-05-07T22:06:37.991Z,7.98
2023-05-07T22:09:04.757Z,8.01
2023-05-07T22:11:31.519Z,8.03
2023-05-07T22:13:58.173Z,7.85
2023-05-07T22:16:24.950Z,8.05
2023-05-07T22:18:51.774Z,8.03
2023-05-07T22:21:18.470Z,8.11
2023-05-07T22:23:45.183Z,7.94
2023-05-07T22:26:13.233Z,8.04
2023-05-07T22:28:40.630Z,8.04
2023-05-07T22:31:07.456Z,8.01
2023-05-07T22:33:34.198Z,7.94
2023-05-07T22:36:01.103Z,7.93
2023-05-07T22:38:27.850Z,7.83
2023-05-07T22:40:54.588Z,7.80
2023-05-07T22:43:21.307Z,7.93
2023-05-07T22:45:48.092Z,7.92
2023-05-07T22:48:14.864Z,7.94
2023-05-07T22:50:41.677Z,7.94
2023-05-07T22:53:08.366Z,7.94
2023-05-07T22:55:35.225Z,7.85
2023-05-07T22:58:01.999Z,7.84
2023-05-07T23:03:34.046Z,7.73
2023-05-07T23:06:00.841Z,7.81
2023-05-07T23:08:27.688Z,7.45
2023-05-07T23:10:54.429Z,7.35
2023-05-07T23:13:21.182Z,7.74
2023-05-07T23:15:48.023Z,7.50
2023-05-07T23:18:14.784Z,7.67
2023-05-07T23:20:41.490Z,7.48
2023-05-07T23:23:08.266Z,7.57
2023-05-07T23:25:35.021Z,7.57
2023-05-07T23:28:01.754Z,7.73
2023-05-07T23:30:28.616Z,7.71
2023-05-07T23:32:55.523Z,7.71
2023-05-07T23:35:22.414Z,7.78
2023-05-07T23:37:49.232Z,7.81
2023-05-07T23:40:17.549Z,7.62
2023-05-07T23:42:44.276Z,7.87
2023-05-07T23:45:11.434Z,7.89
2023-05-07T23:47:38.204Z,7.57
2023-05-07T23:50:05.419Z,7.76
2023-05-07T23:52:32.108Z,7.80
2023-05-07T23:54:58.804Z,7.77
2023-05-07T23:57:25.497Z,7.81
2023-05-07T23:59:52.181Z,7.79
